Dallara F3

First race:Mar 10, 2019
Last race:Apr 6, 2024
Top 5 qualifying times by track
TrackDateLap TimeLap MPHDriverLeagueSeriesSeason

Autodromo Internazionale del Mugello Grand Prix
Mar 27, 2024 1:39.8891 117.454 David Gallo SRW SRW F3 Series 2024 - Season 1
Mar 27, 2024 1:40.023 117.297 Douglas Gowans SRW SRW F3 Series 2024 - Season 1
Mar 27, 2024 1:40.046 117.270 Daniel J Byrne SRW SRW F3 Series 2024 - Season 1
Mar 27, 2024 1:40.265 117.014 Mathew Gerrard SRW SRW F3 Series 2024 - Season 1
Mar 27, 2024 1:40.565 116.665 Scott Pocock SRW SRW F3 Series 2024 - Season 1

Autodromo Internazionale Enzo e Dino Ferrari Grand Prix
Aug 31, 2020 1:36.517 113.762 Felipe Cabrera Loyola iRACING CHILE FORMULA 3 FORMULA 3 - TEMPORADA 3
Aug 31, 2020 1:36.522 113.756 Rodrigo Meezs iRACING CHILE FORMULA 3 FORMULA 3 - TEMPORADA 3
May 18, 2023 1:36.533 113.743 Finley Fitzsimmons League Zero Formula Series Season VII
May 18, 2023 1:36.533 113.743 Finley Fitzsimmons League Zero Formula Series Season VII
Jan 4, 2021 1:36.549 113.725 Harrison Dengate Slideways eSports Championship Slideways eSports Championship Season 2 Slideways eSports Championship Season 2 Overall

Autódromo José Carlos Pace Grand Prix
Sep 29, 2019 1:24.514 113.988 Jerome Haag iGPFun iRacing Dallara F3 2019 S4
Sep 29, 2019 1:24.572 113.910 José I. Soria iGPFun iRacing Dallara F3 2019 S4
Sep 29, 2019 1:24.702 113.735 Luca Varani iGPFun iRacing Dallara F3 2019 S4
Sep 29, 2019 1:24.904 113.465 Nicklas Rasmussen iGPFun iRacing Dallara F3 2019 S4
Sep 29, 2019 1:24.982 113.360 Julien Tassel iGPFun iRacing Dallara F3 2019 S4

Autodromo Nazionale Monza Combined
Jan 30, 2021 2:42.452 137.683 Paul Scorthorne Shift+F1 iRacing Series Shift+F1 iRacing Series Combined 2021A
Jan 30, 2021 2:42.917 137.290 Dave Barry Shift+F1 iRacing Series Shift+F1 iRacing Series Combined 2021A
Jan 30, 2021 2:43.006 137.215 David Bang Shift+F1 iRacing Series Shift+F1 iRacing Series Combined 2021A
Jan 30, 2021 2:43.041 137.185 Ryan Phillips7 Shift+F1 iRacing Series Shift+F1 iRacing Series Combined 2021A
Jan 30, 2021 2:43.078 137.154 Randal Bernhoft Shift+F1 iRacing Series Shift+F1 iRacing Series Combined 2021A

Autodromo Nazionale Monza GP without first chicane
Aug 10, 2020 1:35.398 132.078 Felipe Cabrera Loyola iRACING CHILE FORMULA 3 FORMULA 3 - TEMPORADA 3
Aug 10, 2020 1:35.490 131.951 Rodrigo Meezs iRACING CHILE FORMULA 3 FORMULA 3 - TEMPORADA 3
Aug 10, 2020 1:35.505 131.930 Enzo Montecinos iRACING CHILE FORMULA 3 FORMULA 3 - TEMPORADA 3
Aug 10, 2020 1:35.522 131.907 Carlos Ruiz iRACING CHILE FORMULA 3 FORMULA 3 - TEMPORADA 3
Aug 10, 2020 1:35.663 131.712 Cristian Otarola iRACING CHILE FORMULA 3 FORMULA 3 - TEMPORADA 3

Autodromo Nazionale Monza Grand Prix
Aug 30, 2023 1:43.695 124.982 Michael Cutajar SRW SRW F3 Series 2023 - Season 3
Aug 30, 2023 1:43.695 124.982 Michael Cutajar SRW SRW F3 Series 2023 - Season 3
Aug 30, 2023 1:43.695 124.982 Michael Cutajar SRW SRW F3 Series 2023 - Season 3
Aug 30, 2023 1:43.745 124.922 Phil Vella SRW SRW F3 Series 2023 - Season 3
Aug 30, 2023 1:43.745 124.922 Phil Vella SRW SRW F3 Series 2023 - Season 3

Barber Motorsports Park Full Course
Jun 15, 2022 1:15.2748 113.823 Corey Macfarlane SRW SRW F3 Series 2022 - Season 2
Jul 9, 2020 1:15.594 113.342 Mike Wayne F3A F3A 2020 F3A S3 2020 (Season 5)
Jul 9, 2020 1:15.596 113.339 Arturo Baz F3A F3A 2020 F3A S3 2020 (Season 5)
Jun 15, 2022 1:15.6281 113.291 Joseph Daley2 SRW SRW F3 Series 2022 - Season 2
Jul 9, 2020 1:15.659 113.245 Jaxon Reihana F3A F3A 2020 F3A S3 2020 (Season 5)

Brands Hatch Circuit Grand Prix
Nov 17, 2019 1:13.018 113.446 Clarke Williams iGPFun iRacing Dallara F3 2019 S4
Nov 17, 2019 1:13.094 113.328 Luca Varani iGPFun iRacing Dallara F3 2019 S4
Nov 17, 2019 1:13.141 113.255 Dave Martin iGPFun iRacing Dallara F3 2019 S4
Nov 17, 2019 1:13.284 113.034 Philipp Lukas iGPFun iRacing Dallara F3 2019 S4
Nov 17, 2019 1:13.330 112.963 Nicklas Rasmussen iGPFun iRacing Dallara F3 2019 S4

Canadian Tire Motorsports Park
Oct 6, 2019 1:08.983 128.327 Luca Varani iGPFun iRacing Dallara F3 2019 S4
Oct 6, 2019 1:09.116 128.080 Nicklas Rasmussen iGPFun iRacing Dallara F3 2019 S4
Oct 2, 2019 1:09.160 127.999 Tobi Soriano Latinoamerica SimRacing Series Road Series Formula 3
Oct 6, 2019 1:09.232 127.866 Jerome Haag iGPFun iRacing Dallara F3 2019 S4
Oct 6, 2019 1:09.270 127.796 Dave Martin iGPFun iRacing Dallara F3 2019 S4

Charlotte Motor Speedway Roval
Jul 2, 2020 1:10.566 116.317 Jack G Boyd F3A F3A 2020 F3A S3 2020 (Season 5)
Jul 2, 2020 1:10.614 116.238 Anthony Marzocca F3A F3A 2020 F3A S3 2020 (Season 5)
Jul 2, 2020 1:10.648 116.182 Arturo Baz F3A F3A 2020 F3A S3 2020 (Season 5)
Jul 2, 2020 1:10.981 115.637 Matthew Cartellone F3A F3A 2020 F3A S3 2020 (Season 5)
Jul 2, 2020 1:11.046 115.531 Bryan Pina F3A F3A 2020 F3A S3 2020 (Season 5)

Circuit de Barcelona Catalunya Grand Prix
Jul 13, 2020 1:37.325 106.900 Andrew Gilliam Slideways eSports Championship Slideways eSports Championship Slideways eSports Championship s2
Jul 13, 2020 1:37.325 106.900 Andrew Gilliam Slideways eSports Championship Slideways eSports Championship Slideways eSports Championship
Mar 27, 2021 1:37.420 106.795 Lee Armsden iFormula League 2021 F3 Season 1
Jul 13, 2020 1:37.493 106.715 Blake Worboys Slideways eSports Championship Slideways eSports Championship Slideways eSports Championship s2
Jul 13, 2020 1:37.493 106.715 Blake Worboys Slideways eSports Championship Slideways eSports Championship Slideways eSports Championship

Circuit de Barcelona Catalunya Historic
Jan 2, 2020 1:32.793 114.060 Joel A Smith F3A F3A 2020 F3A S1 2020
Jan 2, 2020 1:33.232 113.523 David Baz F3A F3A 2020 F3A S1 2020
Jan 12, 2023 1:33.389 113.332 Finley Fitzsimmons League Zero Formula Series Season VI
Jan 12, 2023 1:33.389 113.332 Finley Fitzsimmons League Zero Formula Series Season VI
Jan 2, 2020 1:33.559 113.126 Roo Kooistra F3A F3A 2020 F3A S1 2020

Circuit de Nevers Magny-Cours Grand Prix
May 24, 2023 1:30.8674 108.593 Michael Cutajar SRW SRW F3 Series 2023 - Season 2
May 24, 2023 1:30.8674 108.593 Michael Cutajar SRW SRW F3 Series 2023 - Season 2
May 24, 2023 1:31.0688 108.353 Daniel J Byrne SRW SRW F3 Series 2023 - Season 2
May 24, 2023 1:31.0688 108.353 Daniel J Byrne SRW SRW F3 Series 2023 - Season 2
Feb 21, 2024 1:31.1012 108.315 Kaleb Belak SRW SRW F3 Series 2024 - Season 1

Circuit de Spa-Francorchamps Classic Pits
Feb 8, 2022 2:10.920 119.615 Stefan Mccartain SRW SRW F3 Series 2022 - Season 1
Feb 8, 2022 2:10.933 119.603 Adam L Hughes SRW SRW F3 Series 2022 - Season 1
Jan 23, 2020 2:11.164 119.393 Gary Hamilton F3A F3A 2020 F3A S1 2020
Jan 23, 2020 2:11.234 119.329 Joel A Smith F3A F3A 2020 F3A S1 2020
Feb 8, 2022 2:11.357 119.217 Robert Griffiths SRW SRW F3 Series 2022 - Season 1

Circuit de Spa-Francorchamps Grand Prix Pits
Jan 27, 2022 2:10.804 119.721 Terry Crouch League Zero Formula Series Season III
Jan 27, 2022 2:10.804 119.721 Terry Crouch League Zero Formula Series Season III
Oct 27, 2022 2:10.820 119.706 Finley Fitzsimmons League Zero Formula Series Season V
Mar 21, 2023 2:10.934 119.602 Gary Gachnang Midwest-Motorsports.com F3 Challenge Season 2 S2
Jan 27, 2022 2:11.003 119.539 Russell Soto League Zero Formula Series Season III

Circuit des 24 Heures du Mans 24 Heures du Mans
May 10, 2023 3:49.891 132.637 Daniel J Byrne SRW SRW F3 Series 2023 - Season 2
May 10, 2023 3:50.285 132.410 Robert Griffiths SRW SRW F3 Series 2023 - Season 2
May 10, 2023 3:50.344 132.376 Scott Bartijn SRW SRW F3 Series 2023 - Season 2
May 10, 2023 3:51.859 131.511 Tyson McEvoy SRW SRW F3 Series 2023 - Season 2
May 10, 2023 3:52.377 131.218 Adrian Lauretti SRW SRW F3 Series 2023 - Season 2

Circuit Gilles Villeneuve
Nov 21, 2019 1:28.781 109.888 Julian Kleinbussink F3A F3A S2 2019 F3A S2 2019
Nov 21, 2019 1:28.920 109.717 David Baz F3A F3A S2 2019 F3A S2 2019
Nov 21, 2019 1:29.062 109.542 Dominic Melit F3A F3A S2 2019 F3A S2 2019
Nov 21, 2019 1:29.239 109.324 Guy Leach F3A F3A S2 2019 F3A S2 2019
Nov 21, 2019 1:29.338 109.203 Paul Mansell F3A F3A S2 2019 F3A S2 2019

Circuit of the Americas Grand Prix
Jul 27, 2020 1:56.149 106.219 Felipe Cabrera Loyola iRACING CHILE FORMULA 3 FORMULA 3 - TEMPORADA 3
Jul 27, 2020 1:56.314 106.068 Rodrigo Meezs iRACING CHILE FORMULA 3 FORMULA 3 - TEMPORADA 3
Jun 22, 2022 1:56.529 105.872 Corey Macfarlane SRW SRW F3 Series 2022 - Season 2
Jul 27, 2020 1:56.586 105.821 Lucas Bacigalupo iRACING CHILE FORMULA 3 FORMULA 3 - TEMPORADA 3
Jul 27, 2020 1:57.005 105.442 Enzo Montecinos iRACING CHILE FORMULA 3 FORMULA 3 - TEMPORADA 3

Circuit of the Americas West
Apr 2, 2020 1:24.315 111.012 Oscar Piastri Firsday Fun F3 Firsday Fun F3 2020 Season 2
Apr 2, 2020 1:25.357 109.657 Rob Crouch Firsday Fun F3 Firsday Fun F3 2020 Season 2
Apr 2, 2020 1:25.751 109.153 Philip Lake Firsday Fun F3 Firsday Fun F3 2020 Season 2
Apr 2, 2020 1:25.928 108.928 Joshua Stuart Firsday Fun F3 Firsday Fun F3 2020 Season 2
Apr 2, 2020 1:25.984 108.857 Christian Pancione Firsday Fun F3 Firsday Fun F3 2020 Season 2

Circuit Park Zandvoort Grand Prix - 2009
Jun 22, 2020 1:28.277 108.925 Rodrigo Meezs iRACING CHILE FORMULA 3 FORMULA 3 - TEMPORADA 3
Jun 22, 2020 1:28.333 108.856 Nicolás Rubilar iRACING CHILE FORMULA 3 FORMULA 3 - TEMPORADA 3
Jun 22, 2020 1:28.354 108.830 Lucas Bacigalupo iRACING CHILE FORMULA 3 FORMULA 3 - TEMPORADA 3
Oct 13, 2022 1:28.595 108.534 Reed Gibson League Zero Formula Series Season V
Oct 13, 2022 1:28.595 108.534 Reed Gibson League Zero Formula Series Season V

Circuit Zolder Grand Prix
Feb 7, 2024 1:21.7759 109.705 Greg A. Bradley SRW SRW F3 Series 2024 - Season 1
Feb 7, 2024 1:21.8079 109.662 Kaleb Belak SRW SRW F3 Series 2024 - Season 1
Feb 7, 2024 1:21.9008 109.537 Jay Dixon SRW SRW F3 Series 2024 - Season 1
Feb 7, 2024 1:21.9327 109.495 David Gallo SRW SRW F3 Series 2024 - Season 1
Feb 7, 2024 1:22.0921 109.282 Scott Pocock SRW SRW F3 Series 2024 - Season 1

Circuito de Jerez - Ángel Nieto Moto
Oct 4, 2023 1:30.6726 109.105 Michael Cutajar SRW SRW F3 Series 2023 - Season 4
Oct 4, 2023 1:30.6726 109.105 Michael Cutajar SRW SRW F3 Series 2023 - Season 4
Jun 1, 2023 1:30.7867 108.968 Finley Fitzsimmons League Zero Formula Series Season VII
Jun 1, 2023 1:30.7867 108.968 Finley Fitzsimmons League Zero Formula Series Season VII
Oct 4, 2023 1:30.8736 108.863 Phil Vella SRW SRW F3 Series 2023 - Season 4

Daytona International Speedway Road Course
Oct 25, 2023 1:41.616 126.122 Connor Nixon SRW SRW F3 Series 2023 - Season 4
Oct 25, 2023 1:41.616 126.122 Connor Nixon SRW SRW F3 Series 2023 - Season 4
Oct 25, 2023 1:41.616 126.122 Connor Nixon SRW SRW F3 Series 2023 - Season 4
Oct 25, 2023 1:41.719 125.994 Dylan Debono SRW SRW F3 Series 2023 - Season 4
Oct 25, 2023 1:41.719 125.994 Dylan Debono SRW SRW F3 Series 2023 - Season 4

Daytona International Speedway Road Course - 2008
Jan 9, 2021 1:42.301 125.277 Paul Scorthorne Shift+F1 iRacing Series Shift+F1 iRacing Series Combined 2021A
Jul 3, 2021 1:42.591 124.923 Dave Barry Shift+F1 iRacing Series Shift+F1 iRacing Series Combined 2021B
Jan 9, 2021 1:42.884 124.567 Dave Barry Shift+F1 iRacing Series Shift+F1 iRacing Series Combined 2021A
Jan 9, 2021 1:43.055 124.361 Mikko Tyrväinen Shift+F1 iRacing Series Shift+F1 iRacing Series Combined 2021A
Jul 3, 2021 1:43.077 124.334 Paul Scorthorne Shift+F1 iRacing Series Shift+F1 iRacing Series Combined 2021B

Detroit Grand Prix at Belle Isle Belle Isle
Aug 20, 2020 1:20.690 104.846 Arturo Baz F3A F3A 2020 F3A S3 2020 (Season 5)
Aug 20, 2020 1:20.954 104.504 Dean R Ross F3A F3A 2020 F3A S3 2020 (Season 5)
Nov 15, 2023 1:21.0398 104.393 Dylan Debono SRW SRW F3 Series 2023 - Season 4
Nov 15, 2023 1:21.0398 104.393 Dylan Debono SRW SRW F3 Series 2023 - Season 4
Nov 15, 2023 1:21.0621 104.364 Michael Cutajar SRW SRW F3 Series 2023 - Season 4

Donington Park Racing Circuit Grand Prix
Feb 22, 2023 1:20.2785 112.020 Phil Vella SRW SRW F3 Series 2023 - Season 1
Feb 22, 2023 1:20.3866 111.869 Michael Cutajar SRW SRW F3 Series 2023 - Season 1
Feb 22, 2023 1:20.4147 111.830 Jay Dixon SRW SRW F3 Series 2023 - Season 1
Feb 22, 2023 1:20.4686 111.755 Daniel J Byrne SRW SRW F3 Series 2023 - Season 1
Feb 22, 2023 1:20.538 111.659 Adrian Lauretti SRW SRW F3 Series 2023 - Season 1

Donington Park Racing Circuit National
Sep 18, 2019 57.735 122.027 Dino Filippa Latinoamerica SimRacing Series Road Series Formula 3
Sep 18, 2019 57.802 121.885 Tobi Soriano Latinoamerica SimRacing Series Road Series Formula 3
Sep 18, 2019 57.862 121.759 Sebastian Sadoski Latinoamerica SimRacing Series Road Series Formula 3
Sep 18, 2019 57.904 121.670 Sergio F Fernandez Latinoamerica SimRacing Series Road Series Formula 3
Sep 18, 2019 57.980 121.511 Gonzalo Perez Latinoamerica SimRacing Series Road Series Formula 3

Fuji International Speedway Grand Prix
Aug 17, 2022 1:33.2469 109.390 Adrian Lauretti SRW SRW F3 Series 2022 - Season 3
Aug 17, 2022 1:33.4797 109.117 Darren Fahey SRW SRW F3 Series 2022 - Season 3
Aug 17, 2022 1:33.5019 109.091 Daniel J Byrne SRW SRW F3 Series 2022 - Season 3
Aug 17, 2022 1:33.6126 108.962 Andrew Lydon SRW SRW F3 Series 2022 - Season 3
Aug 17, 2022 1:33.6892 108.873 Christopher Ireland SRW SRW F3 Series 2022 - Season 3

Fuji International Speedway No Chicane
Sep 23, 2022 1:31.378 109.913 David Mull EDI League EDI General 2022 Season 4
Sep 23, 2022 1:31.988 109.184 Tom Brice EDI League EDI General 2022 Season 4
Sep 23, 2022 1:34.661 106.101 Dylan Hesselink EDI League EDI General 2022 Season 4
Sep 23, 2022 1:35.818 104.820 Steven White10 EDI League EDI General 2022 Season 4
Sep 23, 2022 1:35.867 104.766 Thomas Vachon EDI League EDI General 2022 Season 4

Hockenheimring Baden-Württemberg Grand Prix
Oct 10, 2021 1:31.039 112.304 Qio-Tiago Marteau iGPFun iRacing Dallara F3 2021 Season 4
Oct 10, 2021 1:31.148 112.169 Jahrome Lamey iGPFun iRacing Dallara F3 2021 Season 4
Oct 10, 2021 1:31.281 112.006 Max Bartolotta iGPFun iRacing Dallara F3 2021 Season 4
Oct 10, 2021 1:31.327 111.949 Alex Fournier iGPFun iRacing Dallara F3 2021 Season 4
Oct 10, 2021 1:31.420 111.835 Andy Flint iGPFun iRacing Dallara F3 2021 Season 4

Hockenheimring Baden-Württemberg National A
Aug 28, 2021 1:16.015 108.452 Dave Barry Shift+F1 iRacing Series Shift+F1 iRacing Series Combined 2021B
Aug 28, 2021 1:16.522 107.734 Austin Powell2 Shift+F1 iRacing Series Shift+F1 iRacing Series Combined 2021B
Aug 28, 2021 1:16.946 107.140 Paul Scorthorne Shift+F1 iRacing Series Shift+F1 iRacing Series Combined 2021B
Aug 28, 2021 1:17.083 106.950 John Mears2 Shift+F1 iRacing Series Shift+F1 iRacing Series Combined 2021B
Aug 28, 2021 1:17.111 106.911 Ryan Phillips7 Shift+F1 iRacing Series Shift+F1 iRacing Series Combined 2021B

Homestead Miami Speedway Road Course A
Aug 1, 2023 1:17.5331 102.614 Brian Coxen Midwest-Motorsports.com F3 Challenge Season 2 S2
Aug 1, 2023 1:17.5363 102.610 Mekz Bauer Midwest-Motorsports.com F3 Challenge Season 2 S2
Aug 1, 2023 1:17.8281 102.225 Rob Angus Midwest-Motorsports.com F3 Challenge Season 2 S2
Aug 1, 2023 1:18.3351 101.564 Dustyn Reinstetle Midwest-Motorsports.com F3 Challenge Season 2 S2
Aug 1, 2023 1:18.5274 101.315 Taylor Montague Midwest-Motorsports.com F3 Challenge Season 2 S2

Hungaroring
Feb 17, 2022 1:36.090 101.979 Terry Crouch League Zero Formula Series Season III
Feb 17, 2022 1:36.090 101.979 Terry Crouch League Zero Formula Series Season III
Aug 31, 2022 1:36.107 101.961 Adrian Lauretti SRW SRW F3 Series 2022 - Season 3
Aug 31, 2022 1:36.1923 101.871 Daniel J Byrne SRW SRW F3 Series 2022 - Season 3
Aug 31, 2022 1:36.1944 101.869 Darren Fahey SRW SRW F3 Series 2022 - Season 3

Indianapolis Motor Speedway Road Course
Jun 6, 2023 1:19.781 110.056 Yohann Deroy Midwest-Motorsports.com F3 Challenge Season 2 S2
Sep 25, 2022 1:19.950 109.824 Ricki Worrall 3Legs4Wheels Podcast League F3Legs4Wheels Season 1 - Autumn 2022
Sep 25, 2022 1:19.952 109.821 Chris Hulse2 3Legs4Wheels Podcast League F3Legs4Wheels Season 1 - Autumn 2022
Sep 25, 2022 1:20.109 109.606 Mark Audley 3Legs4Wheels Podcast League F3Legs4Wheels Season 1 - Autumn 2022
Sep 25, 2022 1:20.154 109.544 Stephen Lichota 3Legs4Wheels Podcast League F3Legs4Wheels Season 1 - Autumn 2022

Indianapolis Motor Speedway Road Course - 2009
May 24, 2020 1:22.508 113.662 Russell Klaesson Dirty Old Bastards Fun Runs Fun Runs
May 24, 2020 1:22.713 113.380 Jonathan Lohe Dirty Old Bastards Fun Runs Fun Runs
May 24, 2020 1:22.864 113.173 Chris Roberts4 Dirty Old Bastards Fun Runs Fun Runs
Nov 15, 2020 1:22.981 113.014 Ricki Worrall 3Legs4Wheels Podcast League 3L4W ALL CLASSES CHAMPIONSHIP Season 2 July 2020 to Jan 2021
Nov 15, 2020 1:22.998 112.991 Jamie Nicolson 3Legs4Wheels Podcast League 3L4W ALL CLASSES CHAMPIONSHIP Season 2 July 2020 to Jan 2021

Knockhill Racing Circuit National
Feb 16, 2022 50.232 80.268 David Visser2 East 2 West Racing Track Series West Track Series Season 1

Lime Rock Park Chicanes
Aug 3, 2020 50.355 109.383 Felipe Cabrera Loyola iRACING CHILE FORMULA 3 FORMULA 3 - TEMPORADA 3
Aug 3, 2020 50.420 109.242 Rodrigo Meezs iRACING CHILE FORMULA 3 FORMULA 3 - TEMPORADA 3
Aug 3, 2020 50.513 109.041 Enzo Montecinos iRACING CHILE FORMULA 3 FORMULA 3 - TEMPORADA 3
Aug 3, 2020 50.686 108.669 David Fischmann iRACING CHILE FORMULA 3 FORMULA 3 - TEMPORADA 3
Aug 3, 2020 50.796 108.434 Lucas Bacigalupo iRACING CHILE FORMULA 3 FORMULA 3 - TEMPORADA 3

Lime Rock Park Classic
Apr 2, 2020 43.197 127.509 Phillip Worley F3A F3A 2020 F3A S2 2020
Apr 2, 2020 43.311 127.173 David Baz F3A F3A 2020 F3A S2 2020
Apr 2, 2020 43.340 127.088 Jason Dullaghan F3A F3A 2020 F3A S2 2020
Apr 2, 2020 43.397 126.921 Leigh Van Den Berghe F3A F3A 2020 F3A S2 2020
Apr 2, 2020 43.527 126.542 Sean Mckenzie F3A F3A 2020 F3A S2 2020

Lime Rock Park Grand Prix
Apr 18, 2021 46.241 119.115 Dan Slattery 3Legs4Wheels Podcast League 3L4W ALL CLASSES CHAMPIONSHIP Season 3 Jan 21 to Jul 21
Apr 18, 2021 46.527 118.383 Ricki Worrall 3Legs4Wheels Podcast League 3L4W ALL CLASSES CHAMPIONSHIP Season 3 Jan 21 to Jul 21
Apr 18, 2021 46.612 118.167 Geoff Sharp 3Legs4Wheels Podcast League 3L4W ALL CLASSES CHAMPIONSHIP Season 3 Jan 21 to Jul 21
Apr 18, 2021 46.700 117.944 Adam Smith27 3Legs4Wheels Podcast League 3L4W ALL CLASSES CHAMPIONSHIP Season 3 Jan 21 to Jul 21
Apr 18, 2021 46.742 117.838 Mark Audley 3Legs4Wheels Podcast League 3L4W ALL CLASSES CHAMPIONSHIP Season 3 Jan 21 to Jul 21

Lime Rock Park West Bend Chicane
Jan 16, 2021 48.199 114.276 Dave Barry Shift+F1 iRacing Series Shift+F1 iRacing Series Combined 2021A
Jan 16, 2021 48.528 113.501 Paul Scorthorne Shift+F1 iRacing Series Shift+F1 iRacing Series Combined 2021A
Jan 16, 2021 48.791 112.890 Drew Glover Shift+F1 iRacing Series Shift+F1 iRacing Series Combined 2021A
Jan 16, 2021 48.839 112.779 Brett Hixon Shift+F1 iRacing Series Shift+F1 iRacing Series Combined 2021A
Jan 16, 2021 49.177 112.004 Daniel Tuffs Shift+F1 iRacing Series Shift+F1 iRacing Series Combined 2021A

Long Beach Street Circuit
May 2, 2023 1:12.8652 97.232 Yohann Deroy Midwest-Motorsports.com F3 Challenge Season 2 S2
Nov 3, 2022 1:13.302 96.652 Finley Fitzsimmons League Zero Formula Series Season V
Nov 3, 2022 1:13.302 96.652 Finley Fitzsimmons League Zero Formula Series Season V
May 3, 2023 1:13.3655 96.569 Daniel J Byrne SRW SRW F3 Series 2023 - Season 2
Nov 3, 2022 1:13.385 96.543 Mikah Barnett League Zero Formula Series Season V

Mid-Ohio Sports Car Course Full Course
Feb 14, 2024 1:14.5874 108.597 Jay Dixon SRW SRW F3 Series 2024 - Season 1
Feb 14, 2024 1:14.5874 108.597 Jay Dixon SRW SRW F3 Series 2024 - Season 1
Feb 14, 2024 1:14.709 108.421 Mathew Gerrard SRW SRW F3 Series 2024 - Season 1
Feb 14, 2024 1:14.709 108.421 Mathew Gerrard SRW SRW F3 Series 2024 - Season 1
Feb 14, 2024 1:14.7171 108.409 Dylan Debono SRW SRW F3 Series 2024 - Season 1

Mid-Ohio Sports Car Course Short
May 6, 2021 1:02.258 115.648 Brandon Duley Last Man Standing Motorsports Thursday Track Day Track Day Season 2 - F3
May 6, 2021 1:06.369 108.484 Ron Giovo Last Man Standing Motorsports Thursday Track Day Track Day Season 2 - F3

Mobility Resort Motegi East
Jul 25, 2023 1:14.5973 101.923 Joshua Blum Midwest-Motorsports.com F3 Challenge Season 2 S2
Jul 25, 2023 1:14.603 101.915 Jason Phillips6 Midwest-Motorsports.com F3 Challenge Season 2 S2
Jul 25, 2023 1:15.1964 101.111 Brian Coxen Midwest-Motorsports.com F3 Challenge Season 2 S2
Jul 25, 2023 1:15.2219 101.077 Mekz Bauer Midwest-Motorsports.com F3 Challenge Season 2 S2
Jul 25, 2023 1:15.3125 100.955 Justin Fedorowski Midwest-Motorsports.com F3 Challenge Season 2 S2

Mobility Resort Motegi Grand Prix
Aug 3, 2022 1:42.491 104.778 Matty Jones SRW SRW F3 Series 2022 - Season 3
Mar 1, 2023 1:43.139 104.120 Matthew Pignata SRW SRW F3 Series 2023 - Season 1
Mar 1, 2023 1:43.139 104.120 Matthew Pignata SRW SRW F3 Series 2023 - Season 1
Mar 1, 2023 1:43.146 104.113 Michael Cutajar SRW SRW F3 Series 2023 - Season 1
Mar 1, 2023 1:43.146 104.113 Michael Cutajar SRW SRW F3 Series 2023 - Season 1

MotorLand Aragón Grand Prix
Feb 28, 2024 1:50.136 103.127 Dylan Debono SRW SRW F3 Series 2024 - Season 1
Feb 28, 2024 1:50.136 103.127 Dylan Debono SRW SRW F3 Series 2024 - Season 1
Feb 28, 2024 1:50.171 103.094 Jay Dixon SRW SRW F3 Series 2024 - Season 1
Feb 28, 2024 1:50.171 103.094 Jay Dixon SRW SRW F3 Series 2024 - Season 1
Feb 28, 2024 1:50.185 103.081 Kaleb Belak SRW SRW F3 Series 2024 - Season 1

Mount Panorama Circuit
Oct 17, 2019 1:56.708 123.385 Dominic Melit F3A F3A S2 2019 F3A S2 2019
Apr 26, 2023 1:57.013 123.063 Adrian Lauretti SRW SRW F3 Series 2023 - Season 2
Apr 26, 2023 1:57.013 123.063 Adrian Lauretti SRW SRW F3 Series 2023 - Season 2
Oct 20, 2019 1:57.033 123.042 Luca Varani iGPFun iRacing Dallara F3 2019 S4
Oct 5, 2022 1:57.082 122.991 Matty Jones SRW SRW F3 Series 2022 - Season 4

Nürburgring Combined Gesamtstrecke 24h
Nov 29, 2022 7:53.650 119.861 Jason Phillips6 Midwest-Motorsports.com Road Series F3 Challenge (S3)
Nov 29, 2022 7:56.382 119.173 JW Miller Midwest-Motorsports.com Road Series F3 Challenge (S3)
Nov 29, 2022 7:59.100 118.497 Adrian Fedorowski Midwest-Motorsports.com Road Series F3 Challenge (S3)
Nov 29, 2022 8:00.194 118.227 Justin Thaler Midwest-Motorsports.com Road Series F3 Challenge (S3)
Nov 29, 2022 8:00.293 118.203 Justin Gloeckner Midwest-Motorsports.com Road Series F3 Challenge (S3)

Nürburgring Grand-Prix-Strecke BES/WEC
Jun 22, 2023 1:46.113 108.564 Finley Fitzsimmons League Zero Formula Series Season VII
Jun 22, 2023 1:46.113 108.564 Finley Fitzsimmons League Zero Formula Series Season VII
Jun 15, 2020 1:46.160 108.515 Rodrigo Meezs iRACING CHILE FORMULA 3 FORMULA 3 - TEMPORADA 3
Jun 15, 2020 1:46.211 108.463 Felipe Ruiz iRACING CHILE FORMULA 3 FORMULA 3 - TEMPORADA 3
Jun 22, 2023 1:46.256 108.417 Raymond Aguilar League Zero Formula Series Season VII

Nürburgring Grand-Prix-Strecke Grand Prix
Aug 13, 2020 1:49.902 104.821 Mike Wayne F3A F3A 2020 F3A S3 2020 (Season 5)
Aug 13, 2020 1:50.208 104.530 Arturo Baz F3A F3A 2020 F3A S3 2020 (Season 5)
Feb 18, 2021 1:50.272 104.469 Brayden Werner League Zero Formula Series Season I
Feb 18, 2021 1:50.339 104.406 Russell Soto League Zero Formula Series Season I
Feb 18, 2021 1:50.339 104.406 Russell Soto League Zero Formula Series Season I

Nürburgring Grand-Prix-Strecke Grand Prix w/out Arena
Oct 27, 2019 1:34.624 73.808 Massimo Locatello iGPFun iRacing Dallara F3 2019 S4
Oct 27, 2019 1:34.679 73.765 Nicklas Rasmussen iGPFun iRacing Dallara F3 2019 S4
Oct 27, 2019 1:35.042 73.483 Dave Martin iGPFun iRacing Dallara F3 2019 S4
Oct 27, 2019 1:35.197 73.364 Luca Varani iGPFun iRacing Dallara F3 2019 S4
Oct 27, 2019 1:35.564 73.082 Jose manuel Casado Gil iGPFun iRacing Dallara F3 2019 S4

Nürburgring Grand-Prix-Strecke Sprintstrecke
Feb 22, 2022 1:21.5369 99.342 Stefan Mccartain SRW SRW F3 Series 2022 - Season 1
Feb 22, 2022 1:21.7801 99.046 Robert Griffiths SRW SRW F3 Series 2022 - Season 1
Feb 22, 2022 1:21.8624 98.947 Adam L Hughes SRW SRW F3 Series 2022 - Season 1
Feb 22, 2022 1:22.0423 98.730 Brett K Waudby SRW SRW F3 Series 2022 - Season 1
Feb 22, 2022 1:22.2305 98.504 Nathan Verney SRW SRW F3 Series 2022 - Season 1

Nürburgring Nordschleife Industriefahrten
Nov 27, 2022 6:20.448 122.445 Mark Pendlebury 3Legs4Wheels Podcast League F3Legs4Wheels Season 1 - Autumn 2022
Nov 27, 2022 6:22.110 121.913 Stephen Lichota 3Legs4Wheels Podcast League F3Legs4Wheels Season 1 - Autumn 2022
Nov 27, 2022 6:30.186 119.389 Mark Audley 3Legs4Wheels Podcast League F3Legs4Wheels Season 1 - Autumn 2022
Nov 27, 2022 6:34.085 118.208 Jamie Nicolson 3Legs4Wheels Podcast League F3Legs4Wheels Season 1 - Autumn 2022
Nov 27, 2022 6:38.500 116.898 Paul Nicholson2 3Legs4Wheels Podcast League F3Legs4Wheels Season 1 - Autumn 2022

Okayama International Circuit Full Course
Jul 27, 2022 1:21.4708 102.250 Matty Jones SRW SRW F3 Series 2022 - Season 3
Jul 27, 2022 1:21.4708 102.250 Matty Jones SRW SRW F3 Series 2022 - Season 3
Apr 12, 2023 1:21.5256 102.181 Jay Dixon SRW SRW F3 Series 2023 - Season 2
Apr 12, 2023 1:21.5256 102.181 Jay Dixon SRW SRW F3 Series 2023 - Season 2
Jul 6, 2020 1:21.627 102.054 Nicolás Rubilar iRACING CHILE FORMULA 3 FORMULA 3 - TEMPORADA 3

Okayama International Circuit Short
Mar 19, 2020 47.764 97.982 Rob Crouch Firsday Fun F3 Firsday Fun F3 2020 Season 2
Mar 19, 2020 47.928 97.646 Nicholas Bradford Firsday Fun F3 Firsday Fun F3 2020 Season 2
Mar 19, 2020 48.023 97.453 Shane Russell3 Firsday Fun F3 Firsday Fun F3 2020 Season 2
Mar 19, 2020 48.228 97.039 Michael Carew Firsday Fun F3 Firsday Fun F3 2020 Season 2
Mar 19, 2020 48.415 96.664 Jay Dixon Firsday Fun F3 Firsday Fun F3 2020 Season 2

Oran Park Raceway Grand Prix
Nov 2, 2022 58.243 100.132 Matty Jones SRW SRW F3 Series 2022 - Season 4
Nov 2, 2022 58.333 99.978 Adrian Lauretti SRW SRW F3 Series 2022 - Season 4
Nov 2, 2022 58.431 99.811 Daniel J Byrne SRW SRW F3 Series 2022 - Season 4
Nov 2, 2022 58.451 99.776 Scott Bartijn SRW SRW F3 Series 2022 - Season 4
Nov 2, 2022 58.486 99.716 Matthew Pignata SRW SRW F3 Series 2022 - Season 4

Oulton Park Circuit International
Aug 3, 2023 1:24.6557 114.478 Raymond Aguilar League Zero Formula Series Season VII
Aug 3, 2023 1:24.6557 114.478 Raymond Aguilar League Zero Formula Series Season VII
Aug 3, 2023 1:24.863 114.198 Finley Fitzsimmons League Zero Formula Series Season VII
Aug 3, 2023 1:24.863 114.198 Finley Fitzsimmons League Zero Formula Series Season VII
Aug 3, 2023 1:25.3701 113.520 Jaden Calloway League Zero Formula Series Season VII

Oulton Park Circuit Intl w/out Brittens
Oct 23, 2021 1:22.764 117.094 Dave Barry Shift+F1 iRacing Series Shift+F1 iRacing Series Combined 2021B
Oct 23, 2021 1:23.327 116.303 Austin Powell2 Shift+F1 iRacing Series Shift+F1 iRacing Series Combined 2021B
Oct 23, 2021 1:23.713 115.767 Paul Scorthorne Shift+F1 iRacing Series Shift+F1 iRacing Series Combined 2021B
Oct 23, 2021 1:23.740 115.730 Antti Helin Shift+F1 iRacing Series Shift+F1 iRacing Series Combined 2021B
Oct 23, 2021 1:23.763 115.698 Skyler Rabin Shift+F1 iRacing Series Shift+F1 iRacing Series Combined 2021B

Oulton Park Circuit Intl w/out Hislop
Apr 3, 2021 1:20.647 120.168 Dave Barry Shift+F1 iRacing Series Shift+F1 iRacing Series Combined 2021A
Apr 3, 2021 1:20.889 119.809 Daniel Tuffs Shift+F1 iRacing Series Shift+F1 iRacing Series Combined 2021A
Apr 3, 2021 1:20.923 119.758 Paul Scorthorne Shift+F1 iRacing Series Shift+F1 iRacing Series Combined 2021A
Apr 3, 2021 1:21.434 119.007 Nathan Scott4 Shift+F1 iRacing Series Shift+F1 iRacing Series Combined 2021A
Apr 3, 2021 1:21.905 118.322 Mikko Tyrväinen Shift+F1 iRacing Series Shift+F1 iRacing Series Combined 2021A

Phillip Island Circuit
Jan 30, 2020 1:22.151 121.036 Joel A Smith F3A F3A 2020 F3A S1 2020
Oct 26, 2022 1:22.1679 121.011 Matty Jones SRW SRW F3 Series 2022 - Season 4
Oct 26, 2022 1:22.1679 121.011 Matty Jones SRW SRW F3 Series 2022 - Season 4
Apr 30, 2020 1:22.188 120.981 Luiz Paulo Gallon F3A F3A 2020 F3A S2 2020
Apr 30, 2020 1:22.264 120.869 Gary Hamilton F3A F3A 2020 F3A S2 2020

Red Bull Ring Grand Prix
Sep 22, 2022 1:24.082 114.874 Finley Fitzsimmons League Zero Formula Series Season V
Sep 22, 2022 1:24.082 114.874 Finley Fitzsimmons League Zero Formula Series Season V
Jun 27, 2023 1:24.2277 114.675 Mekz Bauer Midwest-Motorsports.com F3 Challenge Season 2 S2
Sep 22, 2022 1:24.308 114.566 Michael Qiao League Zero Formula Series Season V
Sep 22, 2022 1:24.308 114.566 Michael Qiao League Zero Formula Series Season V

Red Bull Ring National
Mar 30, 2022 49.480 105.788 Hannah Howell East 2 West Racing Track Series West Track Series Season 1
Mar 30, 2022 51.186 102.262 David Visser2 East 2 West Racing Track Series West Track Series Season 1

Road America Full Course
Mar 10, 2019 1:54.759 126.986 Brian Lockwood iGPFun W13 Big races W13 Big Races - F3
Mar 10, 2019 1:54.946 126.780 Kane Halliburton iGPFun W13 Big races W13 Big Races - F3
Mar 10, 2019 1:55.355 126.330 Ross Woodford iGPFun W13 Big races W13 Big Races - F3
Mar 10, 2019 1:55.500 126.171 John Miller III iGPFun W13 Big races W13 Big Races - F3
Mar 10, 2019 1:55.585 126.079 Massimo Locatello iGPFun W13 Big races W13 Big Races - F3

Road Atlanta Full Course
Jan 16, 2020 1:13.553 124.319 Franklin Souza Virtual Challenge eSports Formula 3 T1-2020 - Fastcast Formula 3
Dec 1, 2022 1:13.589 124.258 Finley Fitzsimmons League Zero Formula Series Season V
Dec 1, 2022 1:13.589 124.258 Finley Fitzsimmons League Zero Formula Series Season V
Jan 16, 2020 1:13.808 123.889 Nathan Brito Virtual Challenge eSports Formula 3 T1-2020 - Fastcast Formula 3
Jan 16, 2020 1:13.835 123.844 Adriano Guimarães Virtual Challenge eSports Formula 3 T1-2020 - Fastcast Formula 3

Road Atlanta Short
Apr 16, 2020 49.968 126.801 Philip Lake Firsday Fun F3 Firsday Fun F3 2020 Season 2
Apr 16, 2020 49.990 126.745 Christopher Rigby Firsday Fun F3 Firsday Fun F3 2020 Season 2
Apr 16, 2020 50.179 126.268 Yianni Sotiriou Firsday Fun F3 Firsday Fun F3 2020 Season 2
Apr 16, 2020 50.202 126.210 Rob Crouch Firsday Fun F3 Firsday Fun F3 2020 Season 2
Apr 16, 2020 50.247 126.097 Michael Carew Firsday Fun F3 Firsday Fun F3 2020 Season 2

Rudskogen Motorsenter
Nov 10, 2022 1:12.984 99.737 Finley Fitzsimmons League Zero Formula Series Season V
Nov 10, 2022 1:12.984 99.737 Finley Fitzsimmons League Zero Formula Series Season V
Nov 10, 2022 1:13.014 99.696 Reed Gibson League Zero Formula Series Season V
Nov 10, 2022 1:13.014 99.696 Reed Gibson League Zero Formula Series Season V
Nov 10, 2022 1:13.220 99.415 Josh H Green League Zero Formula Series Season V

Sandown International Motor Raceway
Feb 1, 2023 1:03.6189 109.100 Ryan Hoolihan SRW SRW F3 Series 2023 - Season 1
Feb 1, 2023 1:03.6189 109.100 Ryan Hoolihan SRW SRW F3 Series 2023 - Season 1
Oct 19, 2022 1:03.7421 108.889 Christopher Ireland SRW SRW F3 Series 2022 - Season 4
Nov 16, 2022 1:03.7923 108.803 Matthew Pignata SRW SRW F3 Series 2022 - Season 4
Nov 16, 2022 1:03.7923 108.803 Matthew Pignata SRW SRW F3 Series 2022 - Season 4

Sebring International Raceway Club
Apr 23, 2020 58.609 107.492 Rob Crouch Firsday Fun F3 Firsday Fun F3 2020 Season 2
Apr 23, 2020 58.609 107.492 Jarrad Thomas Firsday Fun F3 Firsday Fun F3 2020 Season 2
Apr 23, 2020 58.625 107.463 Yianni Sotiriou Firsday Fun F3 Firsday Fun F3 2020 Season 2
Apr 23, 2020 58.860 107.034 Philip Lake Firsday Fun F3 Firsday Fun F3 2020 Season 2
Apr 23, 2020 58.886 106.986 Nicholas Bradford Firsday Fun F3 Firsday Fun F3 2020 Season 2

Sebring International Raceway International
Nov 3, 2019 1:50.280 120.783 Nicklas Rasmussen iGPFun iRacing Dallara F3 2019 S4
Nov 3, 2019 1:50.458 120.589 Luca Varani iGPFun iRacing Dallara F3 2019 S4
Oct 31, 2019 1:50.516 120.526 Julian Kleinbussink F3A F3A S2 2019 F3A S2 2019
Oct 31, 2019 1:50.953 120.051 Andrew Duffy F3A F3A S2 2019 F3A S2 2019
Oct 31, 2019 1:51.111 119.880 Guy Leach F3A F3A S2 2019 F3A S2 2019

Silverstone Circuit Grand Prix
Jul 6, 2023 1:51.605 116.124 Russell Soto League Zero Formula Series Season VII
Jul 6, 2023 1:51.605 116.124 Russell Soto League Zero Formula Series Season VII
Sep 29, 2022 1:51.607 116.122 Finley Fitzsimmons League Zero Formula Series Season V
Sep 29, 2022 1:51.721 116.003 Reed Gibson League Zero Formula Series Season V
Sep 29, 2022 1:51.721 116.003 Reed Gibson League Zero Formula Series Season V

Snetterton Circuit 300
Sep 26, 2021 1:36.829 110.793 Tobias F. Olsson iGPFun iRacing Dallara F3 2021 Season 4
Sep 26, 2021 1:36.989 110.610 Qio-Tiago Marteau iGPFun iRacing Dallara F3 2021 Season 4
Sep 26, 2021 1:37.331 110.222 Alex Fournier iGPFun iRacing Dallara F3 2021 Season 4
Sep 26, 2021 1:37.472 110.062 Gavin Petty iGPFun iRacing Dallara F3 2021 Season 4
Sep 26, 2021 1:37.527 110.000 Lucas Maruk iGPFun iRacing Dallara F3 2021 Season 4

Sonoma Raceway NASCAR Long
Nov 17, 2022 1:21.814 111.326 Reed Gibson League Zero Formula Series Season V
Nov 17, 2022 1:21.814 111.326 Reed Gibson League Zero Formula Series Season V
Nov 17, 2022 1:21.862 111.260 Josh H Green League Zero Formula Series Season V
Nov 17, 2022 1:21.912 111.192 Finley Fitzsimmons League Zero Formula Series Season V
Nov 17, 2022 1:21.912 111.192 Finley Fitzsimmons League Zero Formula Series Season V

Sonoma Raceway Open Wheel 2012-2018
Jun 10, 2021 1:23.638 95.555 William Edwards2 Last Man Standing Motorsports Thursday Track Day Track Day Season 2 - F3
Jun 10, 2021 1:23.700 95.484 Brandon Duley Last Man Standing Motorsports Thursday Track Day Track Day Season 2 - F3
Jun 10, 2021 1:25.339 93.650 Ron Giovo Last Man Standing Motorsports Thursday Track Day Track Day Season 2 - F3
Jun 10, 2021 1:26.454 92.442 Michael Mooney Last Man Standing Motorsports Thursday Track Day Track Day Season 2 - F3
Jun 10, 2021 1:32.626 86.282 Hannah Howell Last Man Standing Motorsports Thursday Track Day Track Day Season 2 - F3

Summit Point Raceway Short
Apr 9, 2020 49.990 105.141 Rob Crouch Firsday Fun F3 Firsday Fun F3 2020 Season 2
Apr 9, 2020 50.063 104.988 Philip Lake Firsday Fun F3 Firsday Fun F3 2020 Season 2
Apr 9, 2020 50.153 104.799 Shane Russell3 Firsday Fun F3 Firsday Fun F3 2020 Season 2
Apr 9, 2020 50.201 104.699 Jarrad Thomas Firsday Fun F3 Firsday Fun F3 2020 Season 2
Apr 9, 2020 50.211 104.678 Leonard Clarke Firsday Fun F3 Firsday Fun F3 2020 Season 2

Summit Point Raceway Summit Point Raceway
May 3, 2020 1:04.023 111.335 Cameron Merriman Dirty Old Bastards Fun Runs Fun Runs
May 3, 2020 1:04.583 110.370 Jonathan Lohe Dirty Old Bastards Fun Runs Fun Runs
May 3, 2020 1:04.585 110.366 Chris Roberts4 Dirty Old Bastards Fun Runs Fun Runs
May 3, 2020 1:04.890 109.847 Kevin Click Dirty Old Bastards Fun Runs Fun Runs
May 3, 2020 1:04.952 109.743 Michael Bennett2 Dirty Old Bastards Fun Runs Fun Runs

Suzuka International Racing Course East
Mar 26, 2020 45.076 111.332 Rob Crouch Firsday Fun F3 Firsday Fun F3 2020 Season 2
Mar 26, 2020 45.250 110.904 Nicholas Bradford Firsday Fun F3 Firsday Fun F3 2020 Season 2
Mar 26, 2020 45.253 110.897 Leonard Clarke Firsday Fun F3 Firsday Fun F3 2020 Season 2
Mar 26, 2020 45.310 110.757 Simon Ayton Firsday Fun F3 Firsday Fun F3 2020 Season 2
Mar 26, 2020 45.331 110.706 Michael Carew Firsday Fun F3 Firsday Fun F3 2020 Season 2

Suzuka International Racing Course Grand Prix
Sep 11, 2019 1:48.744 119.477 Tobi Soriano Latinoamerica SimRacing Series Road Series Formula 3
Sep 15, 2019 1:48.744 119.477 Nicklas Rasmussen iGPFun iRacing Dallara F3 2019 S4
Sep 15, 2019 1:48.929 119.274 Jerome Haag iGPFun iRacing Dallara F3 2019 S4
Sep 11, 2019 1:48.982 119.216 Dino Filippa Latinoamerica SimRacing Series Road Series Formula 3
Sep 11, 2019 1:49.065 119.125 Brando Valeriano Latinoamerica SimRacing Series Road Series Formula 3

Tsukuba Circuit 2000 Full
Apr 26, 2020 50.465 90.597 Sebastian Hampf Dirty Old Bastards Fun Runs Fun Runs
Apr 26, 2020 50.987 89.670 Ricardo Romkema Dirty Old Bastards Fun Runs Fun Runs
Apr 26, 2020 51.024 89.605 Stag Tas Dirty Old Bastards Fun Runs Fun Runs
Apr 26, 2020 51.059 89.543 Victor Reyes Dirty Old Bastards Fun Runs Fun Runs
Apr 26, 2020 51.234 89.238 Jonathan Lohe Dirty Old Bastards Fun Runs Fun Runs

Tsukuba Circuit 2000 Moto
May 28, 2020 52.195 88.974 Rob Crouch Firsday Fun F3 Firsday Fun F3 2020 Season 2
May 28, 2020 52.247 88.885 Nicholas Bradford Firsday Fun F3 Firsday Fun F3 2020 Season 2
May 28, 2020 52.331 88.743 Yianni Sotiriou Firsday Fun F3 Firsday Fun F3 2020 Season 2
May 28, 2020 52.351 88.709 Jarrad Thomas Firsday Fun F3 Firsday Fun F3 2020 Season 2
May 28, 2020 52.497 88.462 Leonard Clarke Firsday Fun F3 Firsday Fun F3 2020 Season 2

Virginia International Raceway Full Course
Jun 7, 2023 1:39.5944 118.199 Robert Griffiths SRW SRW F3 Series 2023 - Season 2
Oct 26, 2023 1:39.8591 117.886 Kevin Santana WOR - Worn Out Racers 2023 Season 4 4 - Thursday
Oct 26, 2023 1:39.8591 117.886 Kevin Santana Worn Out Racers - ROAD 2023 Season 4 - All Road Races 4 - Thursday
Mar 30, 2023 1:39.941 117.789 Finley Fitzsimmons League Zero Formula Series Season VI
Mar 30, 2023 1:39.941 117.789 Finley Fitzsimmons League Zero Formula Series Season VI

Virginia International Raceway [Retired] Full Course
May 18, 2022 1:41.385 116.112 Corey Macfarlane SRW SRW F3 Series 2022 - Season 2
May 18, 2022 1:41.533 115.943 Camryn Edwards SRW SRW F3 Series 2022 - Season 2
Jan 23, 2020 1:42.051 115.354 Gregor Ajd FLANC - SWISS ONLINE RACING LEAGUE Club Races 2020
Jan 23, 2020 1:42.087 115.313 Nicolas Tanner FLANC - SWISS ONLINE RACING LEAGUE Club Races 2020
Jan 23, 2020 1:42.114 115.283 Adrian Thomi FLANC - SWISS ONLINE RACING LEAGUE Club Races 2020

Watkins Glen International Boot
Nov 30, 2023 1:37.5829 125.432 Mark Axelson Worn Out Racers - ROAD 2023 Season 4 - All Road Races 4 - Thursday
Nov 30, 2023 1:37.5829 125.432 Mark Axelson WOR - Worn Out Racers 2023 Season 4 4 - Thursday
Nov 30, 2023 1:37.6276 125.374 Kevin Santana Worn Out Racers - ROAD 2023 Season 4 - All Road Races 4 - Thursday
Nov 30, 2023 1:37.6276 125.374 Kevin Santana WOR - Worn Out Racers 2023 Season 4 4 - Thursday
Nov 30, 2023 1:37.9265 124.992 Evan Smith9 Worn Out Racers - ROAD 2023 Season 4 - All Road Races 4 - Thursday

Watkins Glen International Classic Boot
Aug 29, 2019 1:34.553 129.451 Jonathan Simon F3A F3A S2 2019 F3A S1 2019
Aug 29, 2019 1:34.737 129.200 Gary Hamilton F3A F3A S2 2019 F3A S1 2019
Aug 28, 2019 1:35.078 128.736 Dino Filippa Latinoamerica SimRacing Series Road Series Formula 3
Aug 28, 2019 1:35.261 128.489 Simón Durán Toledo Latinoamerica SimRacing Series Road Series Formula 3
Aug 28, 2019 1:35.296 128.442 Cristian Otarola Latinoamerica SimRacing Series Road Series Formula 3

Watkins Glen International Cup
May 7, 2020 1:06.049 133.537 Rob Crouch Firsday Fun F3 Firsday Fun F3 2020 Season 2
May 7, 2020 1:06.234 133.164 Jarrad Thomas Firsday Fun F3 Firsday Fun F3 2020 Season 2
May 7, 2020 1:06.330 132.972 Joshua Stuart Firsday Fun F3 Firsday Fun F3 2020 Season 2
May 7, 2020 1:06.343 132.945 Philip Lake Firsday Fun F3 Firsday Fun F3 2020 Season 2
Jun 28, 2020 1:06.356 132.919 Russell Klaesson Dirty Old Bastards Dirty Old Bastards Road Racing Open Wheel Road Season 1

Watkins Glen International [Retired] Boot
Aug 12, 2021 1:39.470 123.052 Joseph DuPont Apollo Racing Club IndyARC iRacing Series Season 4
Aug 12, 2021 1:40.025 122.369 Eric Mahoney Apollo Racing Club IndyARC iRacing Series Season 4
Aug 12, 2021 1:40.273 122.067 Mikey Mingo Apollo Racing Club IndyARC iRacing Series Season 4
Aug 12, 2021 1:40.302 122.031 Matthew Rice Apollo Racing Club IndyARC iRacing Series Season 4
Aug 12, 2021 1:41.225 120.919 Nick Jadue Apollo Racing Club IndyARC iRacing Series Season 4

WeatherTech Raceway at Laguna Seca Full Course
Dec 1, 2019 1:13.445 109.698 Christoph Aymon iGPFun iRacing Dallara F3 2019 S4
Dec 1, 2019 1:13.754 109.239 Nicklas Rasmussen iGPFun iRacing Dallara F3 2019 S4
Nov 28, 2019 1:13.781 109.199 Julian Kleinbussink F3A F3A S2 2019 F3A S2 2019
Nov 28, 2019 1:13.869 109.069 Dominic Melit F3A F3A S2 2019 F3A S2 2019
Dec 1, 2019 1:13.920 108.994 Dave Martin iGPFun iRacing Dallara F3 2019 S4

Winton Motor Raceway National Circuit
Oct 12, 2022 1:11.6025 93.516 Christopher Ireland SRW SRW F3 Series 2022 - Season 4
Oct 12, 2022 1:11.6521 93.452 Matty Jones SRW SRW F3 Series 2022 - Season 4
Oct 12, 2022 1:11.6521 93.452 Matty Jones SRW SRW F3 Series 2022 - Season 4
Oct 12, 2022 1:11.6539 93.449 Matthew Pignata SRW SRW F3 Series 2022 - Season 4
Oct 12, 2022 1:11.6539 93.449 Matthew Pignata SRW SRW F3 Series 2022 - Season 4

[Legacy] Silverstone Circuit - 2008 Grand Prix
Mar 13, 2021 1:38.696 116.503 Dave Barry Shift+F1 iRacing Series Shift+F1 iRacing Series Combined 2021A
Mar 13, 2021 1:39.291 115.805 Paul Scorthorne Shift+F1 iRacing Series Shift+F1 iRacing Series Combined 2021A
Jun 3, 2021 1:39.751 115.271 Nate Brodie Last Man Standing Motorsports Thursday Track Day Track Day Season 2 - F3
Mar 13, 2021 1:39.967 115.022 Daniel Tuffs Shift+F1 iRacing Series Shift+F1 iRacing Series Combined 2021A
Mar 13, 2021 1:40.148 114.814 Brett Hixon Shift+F1 iRacing Series Shift+F1 iRacing Series Combined 2021A

[Legacy] Silverstone Circuit - 2008 Historical Grand Prix
Jun 20, 2021 1:32.713 122.002 David Fish Multi League Multi League Monthly Stats June
Dec 8, 2022 1:33.391 121.117 Ethan Wilson WOR - Worn Out Racers 2022 Season 4 Western Grinding Thursday Series - 2022-S4
Dec 8, 2022 1:33.3911 121.116 Ethan Wilson Worn Out Racers - ROAD 2022 Season 4 - All Road Races 4-Thu Western Grinding Thursday Road 2022 S4
Dec 8, 2022 1:33.439 121.054 B.C. Vaught WOR - Worn Out Racers 2022 Season 4 Western Grinding Thursday Series - 2022-S4
Dec 8, 2022 1:33.4397 121.053 B.C. Vaught Worn Out Racers - ROAD 2022 Season 4 - All Road Races 4-Thu Western Grinding Thursday Road 2022 S4

[Legacy] Silverstone Circuit - 2008 National
May 17, 2020 50.932 115.849 Yianni Sotiriou Dirty Old Bastards Fun Runs Fun Runs
May 17, 2020 50.964 115.776 Naveed Hussain Dirty Old Bastards Fun Runs Fun Runs
May 17, 2020 50.989 115.719 William Westerloppe Dirty Old Bastards Fun Runs Fun Runs
May 17, 2020 51.072 115.531 Alexander Davidson Dirty Old Bastards Fun Runs Fun Runs
May 17, 2020 51.113 115.438 Russell Klaesson Dirty Old Bastards Fun Runs Fun Runs

[Retired] Phoenix Raceway [Retired] Oval
Mar 20, 2021 25.591 140.674 Ron Giovo Last Man Standing Motorsports Dallara F3 Series Dallara F3 Season 1